^^
Meteo Knjazevac Station Historical Data
Daily Summary for April 16, 2021 Units:  Both    English   Metric
Daily Weekly Monthly Yearly Custom
  High: Low: Average:
Temperature: 62 °F /  16.7 °C 58.1 °F /  14.5 °C 59.2 °F /  15.1 °C
Dew Point: 57.1 °F /  13.9 °C 55.2 °F /  12.9 °C 55.9 °F /  13.3 °C
Humidity: 91% 84% 89%
Wind Speed: 3mph /  4.8km/h - 1.4mph /  2.3km/h
Wind Gust: 6mph /  9.7km/h - -
Wind- - SE
Pressure: 30.05 in /  1017.5 hPa 30.02 in /  1016.5 hPa -
Precipitation: 0.00 in /  0 mm    
Historical Graphs
 
 
Tabular Data for April 16, 2021
Time Temperature Dew Point Pressure Wind Wind Speed Wind Gust Humidity Rainfall Rate (Hourly) solar Conditions
00:00 62 °F /  16.7 °C 57.1 °F /  13.9 °C 30.05in /  1017.5hPa NE 1mph /  1.6km/h 3mph /  4.8km/h 84% 0.00in /  0mm 0 W/m2
00:10 61.7 °F /  16.5 °C 56.8 °F /  13.8 °C 30.05in /  1017.5hPa Calm   6mph /  9.7km/h 84% 0.00in /  0mm 0 W/m2
00:20 61.5 °F /  16.4 °C 57 °F /  13.9 °C 30.05in /  1017.5hPa NNE 1mph /  1.6km/h 2mph /  3.2km/h 85% 0.00in /  0mm 0 W/m2
00:30 61.2 °F /  16.2 °C 56.6 °F /  13.7 °C 30.04in /  1017.2hPa Calm   3mph /  4.8km/h 85% 0.00in /  0mm 0 W/m2
00:40 60.6 °F /  15.9 °C 56.4 °F /  13.6 °C 30.04in /  1017.2hPa SSE 2mph /  3.2km/h 5mph /  8km/h 86% 0.00in /  0mm 0 W/m2
00:50 60.2 °F /  15.7 °C 56.6 °F /  13.7 °C 30.05in /  1017.5hPa SE 2mph /  3.2km/h 4mph /  6.4km/h 88% 0.00in /  0mm 0 W/m2
01:00 59.9 °F /  15.5 °C 56.3 °F /  13.5 °C 30.05in /  1017.5hPa Calm   4mph /  6.4km/h 88% 0.00in /  0mm 0 W/m2
01:10 59.5 °F /  15.3 °C 56 °F /  13.3 °C 30.04in /  1017.2hPa Calm   5mph /  8km/h 88% 0.00in /  0mm 0 W/m2
01:20 59.4 °F /  15.2 °C 56.1 °F /  13.4 °C 30.04in /  1017.2hPa South 1mph /  1.6km/h 6mph /  9.7km/h 89% 0.00in /  0mm 0 W/m2
01:30 59 °F /  15 °C 55.8 °F /  13.2 °C 30.04in /  1017.2hPa SE 2mph /  3.2km/h 5mph /  8km/h 89% 0.00in /  0mm 0 W/m2
01:40 58.6 °F /  14.8 °C 55.7 °F /  13.2 °C 30.04in /  1017.2hPa SSE 2mph /  3.2km/h 6mph /  9.7km/h 90% 0.00in /  0mm 0 W/m2
01:50 58.5 °F /  14.7 °C 55.5 °F /  13.1 °C 30.04in /  1017.2hPa SSE 1mph /  1.6km/h 4mph /  6.4km/h 90% 0.00in /  0mm 0 W/m2
02:00 58.3 °F /  14.6 °C 55.4 °F /  13 °C 30.04in /  1017.2hPa SSE 2mph /  3.2km/h 5mph /  8km/h 90% 0.00in /  0mm 0 W/m2
02:10 58.1 °F /  14.5 °C 55.2 °F /  12.9 °C 30.04in /  1017.2hPa South 3mph /  4.8km/h 5mph /  8km/h 90% 0.00in /  0mm 0 W/m2
02:20 58.1 °F /  14.5 °C 55.2 °F /  12.9 °C 30.04in /  1017.2hPa Calm   5mph /  8km/h 90% 0.00in /  0mm 0 W/m2
02:30 58.3 °F /  14.6 °C 55.4 °F /  13 °C 30.04in /  1017.2hPa East 1mph /  1.6km/h 2mph /  3.2km/h 90% 0.00in /  0mm 0 W/m2
02:40 58.1 °F /  14.5 °C 55.2 °F /  12.9 °C 30.04in /  1017.2hPa South 1mph /  1.6km/h 4mph /  6.4km/h 90% 0.00in /  0mm 0 W/m2
02:50 58.3 °F /  14.6 °C 55.4 °F /  13 °C 30.04in /  1017.2hPa East 1mph /  1.6km/h 4mph /  6.4km/h 90% 0.00in /  0mm 0 W/m2
03:00 58.5 °F /  14.7 °C 55.5 °F /  13.1 °C 30.03in /  1016.8hPa ESE 1mph /  1.6km/h 2mph /  3.2km/h 90% 0.00in /  0mm 0 W/m2
03:10 58.5 °F /  14.7 °C 55.5 °F /  13.1 °C 30.03in /  1016.8hPa Calm   2mph /  3.2km/h 90% 0.00in /  0mm 0 W/m2
03:20 58.5 °F /  14.7 °C 55.8 °F /  13.2 °C 30.03in /  1016.8hPa East 1mph /  1.6km/h 4mph /  6.4km/h 91% 0.00in /  0mm 0 W/m2
03:30 58.6 °F /  14.8 °C 56 °F /  13.3 °C 30.02in /  1016.5hPa SE 3mph /  4.8km/h 6mph /  9.7km/h 91% 0.00in /  0mm 0 W/m2
03:40 58.8 °F /  14.9 °C 55.9 °F /  13.3 °C 30.02in /  1016.5hPa South 3mph /  4.8km/h 5mph /  8km/h 90% 0.00in /  0mm 0 W/m2
03:50 58.8 °F /  14.9 °C 55.9 °F /  13.3 °C 30.03in /  1016.8hPa SE 1mph /  1.6km/h 3mph /  4.8km/h 90% 0.00in /  0mm 0 W/m2
04:00 58.8 °F /  14.9 °C 55.9 °F /  13.3 °C 30.03in /  1016.8hPa SSE 3mph /  4.8km/h 5mph /  8km/h 90% 0.00in /  0mm 0 W/m2
04:10 58.8 °F /  14.9 °C 55.9 °F /  13.3 °C 30.02in /  1016.5hPa WSW 1mph /  1.6km/h 5mph /  8km/h 90% 0.00in /  0mm 0 W/m2
04:20 58.6 °F /  14.8 °C 55.7 °F /  13.2 °C 30.02in /  1016.5hPa SSE 2mph /  3.2km/h 4mph /  6.4km/h 90% 0.00in /  0mm 0 W/m2
04:30 58.7 °F /  14.8 °C 55.8 °F /  13.2 °C 30.03in /  1016.8hPa SSE 2mph /  3.2km/h 5mph /  8km/h 90% 0.00in /  0mm 0 W/m2
04:40 59 °F /  15 °C 56.1 °F /  13.4 °C 30.03in /  1016.8hPa SSE 1mph /  1.6km/h 6mph /  9.7km/h 90% 0.00in /  0mm 0 W/m2
04:50 59.1 °F /  15.1 °C 56.1 °F /  13.4 °C 30.03in /  1016.8hPa SE 2mph /  3.2km/h 6mph /  9.7km/h 90% 0.00in /  0mm 2 W/m2
05:00 59.2 °F /  15.1 °C 55.9 °F /  13.3 °C 30.03in /  1016.8hPa SSE 2mph /  3.2km/h 5mph /  8km/h 89% 0.00in /  0mm 5 W/m2
05:10 59.2 °F /  15.1 °C 55.9 °F /  13.3 °C 30.03in /  1016.8hPa SE 2mph /  3.2km/h 5mph /  8km/h 89% 0.00in /  0mm 9 W/m2
05:20 59.2 °F /  15.1 °C 55.9 °F /  13.3 °C 30.03in /  1016.8hPa SSE 1mph /  1.6km/h 6mph /  9.7km/h 89% 0.00in /  0mm 13 W/m2
Knjazevac, Serbia
Compliments of Weather Underground - 2 mb